Time;durP1;ratioP1;P1;durP2;ratioP2;P2;SDS_P1;SDS_P2;PMS_P1;PMS_P2;Temp;Humidity;BMP_temperature;BMP_pressure;BME280_temperature;BME280_humidity;BME280_pressure;Samples;Min_cycle;Max_cycle;Signal;HPM_P1;HPM_P2
2024/04/23 00:01:05;;;;;;;7.30;4.90;;;3.30;99.90;;;;;;5379435;26;20240;-70
2024/04/23 00:03:31;;;;;;;8.30;5.30;;;3.30;99.90;;;;;;5379543;26;20776;-70
2024/04/23 00:05:56;;;;;;;7.57;4.80;;;3.20;99.90;;;;;;5379832;26;20256;-70
2024/04/23 00:08:22;;;;;;;6.20;5.13;;;3.20;99.90;;;;;;5380126;26;20214;-70
2024/04/23 00:10:47;;;;;;;8.70;5.60;;;3.20;99.90;;;;;;5379548;26;20637;-71
2024/04/23 00:13:13;;;;;;;10.50;6.73;;;3.20;99.90;;;;;;5380088;26;20210;-70
2024/04/23 00:15:38;;;;;;;7.97;4.67;;;3.20;99.90;;;;;;5379930;26;20209;-71
2024/04/23 00:18:04;;;;;;;9.80;6.07;;;3.10;99.90;;;;;;5379953;26;20674;-71
2024/04/23 00:20:29;;;;;;;6.23;5.30;;;3.10;99.90;;;;;;5379880;26;20327;-70
2024/04/23 00:22:55;;;;;;;8.13;5.87;;;3.10;99.90;;;;;;5379303;26;20211;-70
2024/04/23 00:25:20;;;;;;;8.90;6.30;;;3.10;99.90;;;;;;5379899;26;20306;-70
2024/04/23 00:27:46;;;;;;;8.37;5.37;;;3.00;99.90;;;;;;5379452;26;20938;-71
2024/04/23 00:30:11;;;;;;;6.50;5.90;;;3.00;99.90;;;;;;5348789;26;20244;-70
2024/04/23 00:32:37;;;;;;;6.97;5.50;;;3.00;99.90;;;;;;5379236;26;20549;-70
2024/04/23 00:35:02;;;;;;;9.70;5.27;;;3.00;99.90;;;;;;5379636;26;20213;-71
2024/04/23 00:37:28;;;;;;;7.40;5.23;;;2.90;99.90;;;;;;5379600;26;20214;-70
2024/04/23 00:39:54;;;;;;;7.43;5.90;;;2.90;99.90;;;;;;5379426;26;20248;-70
2024/04/23 00:42:20;;;;;;;6.80;4.97;;;2.90;99.90;;;;;;5379030;26;20218;-70
2024/04/23 00:44:47;;;;;;;11.67;5.20;;;2.90;99.90;;;;;;5379335;26;20591;-71
2024/04/23 00:47:13;;;;;;;7.00;5.03;;;2.90;99.90;;;;;;5379089;26;20516;-71
2024/04/23 00:49:39;;;;;;;7.30;4.73;;;2.90;99.90;;;;;;5379461;26;20444;-71
2024/04/23 00:52:05;;;;;;;8.70;5.60;;;2.80;99.90;;;;;;5372463;26;20547;-70
2024/04/23 00:54:31;;;;;;;10.20;5.20;;;2.90;99.90;;;;;;5375196;26;20334;-71
2024/04/23 00:56:59;;;;;;;6.57;5.30;;;2.90;99.90;;;;;;5378178;26;20511;-70
2024/04/23 00:59:25;;;;;;;14.93;6.00;;;2.80;99.90;;;;;;5378932;26;20521;-70
2024/04/23 01:01:52;;;;;;;6.83;4.40;;;2.80;99.90;;;;;;5378198;26;20451;-71
2024/04/23 01:04:18;;;;;;;8.73;5.93;;;2.80;99.90;;;;;;5378554;26;20558;-70
2024/04/23 01:06:43;;;;;;;6.73;5.13;;;2.80;99.90;;;;;;5378667;26;20443;-70
2024/04/23 01:09:09;;;;;;;8.63;6.17;;;2.80;99.90;;;;;;5379164;26;20252;-70
2024/04/23 01:11:35;;;;;;;7.13;5.37;;;2.80;99.90;;;;;;5382074;26;20229;-71
2024/04/23 01:14:04;;;;;;;8.50;5.70;;;2.80;99.90;;;;;;5382780;26;20222;-70
2024/04/23 01:16:34;;;;;;;5.90;5.10;;;2.80;99.90;;;;;;5382712;26;20443;-70
2024/04/23 01:19:02;;;;;;;9.87;6.13;;;2.80;99.90;;;;;;5382470;26;20517;-70
2024/04/23 01:21:40;;;;;;;8.93;6.00;;;2.80;99.90;;;;;;5382118;26;20510;-70
2024/04/23 01:24:12;;;;;;;7.40;5.40;;;2.70;99.90;;;;;;5382016;26;20439;-71
2024/04/23 01:26:38;;;;;;;9.53;6.60;;;2.70;99.90;;;;;;5382419;26;20514;-71
2024/04/23 01:29:04;;;;;;;7.03;5.23;;;2.70;99.90;;;;;;5382350;26;20511;-70
2024/04/23 01:31:30;;;;;;;8.60;6.17;;;2.70;99.90;;;;;;5380950;26;20511;-70
2024/04/23 01:33:57;;;;;;;8.20;5.63;;;2.70;99.90;;;;;;5382037;26;20278;-71
2024/04/23 01:36:23;;;;;;;9.67;7.10;;;2.70;99.90;;;;;;5382047;26;20218;-70
2024/04/23 01:38:49;;;;;;;10.13;6.30;;;2.70;99.90;;;;;;5382056;26;20451;-70
2024/04/23 01:41:15;;;;;;;9.00;5.80;;;2.70;99.90;;;;;;5381471;26;20604;-70
2024/04/23 01:43:41;;;;;;;11.83;6.90;;;2.70;99.90;;;;;;5381900;26;20499;-69
2024/04/23 01:46:07;;;;;;;9.10;5.77;;;2.80;99.90;;;;;;5371965;26;20229;-70
2024/04/23 01:48:33;;;;;;;8.30;5.27;;;2.80;99.90;;;;;;5381944;26;20574;-71
2024/04/23 01:51:17;;;;;;;9.13;6.20;;;2.80;99.90;;;;;;5348204;26;20504;-70
2024/04/23 01:53:43;;;;;;;10.67;5.73;;;2.80;99.90;;;;;;5379079;26;20447;-70
2024/04/23 01:56:08;;;;;;;8.83;5.60;;;2.80;99.90;;;;;;5367298;26;20272;-71
2024/04/23 01:58:34;;;;;;;7.90;6.23;;;2.80;99.90;;;;;;5381951;26;20256;-71
2024/04/23 02:01:02;;;;;;;9.13;6.30;;;2.80;99.90;;;;;;5381292;26;20234;-70
2024/04/23 02:03:29;;;;;;;8.60;6.33;;;2.80;99.90;;;;;;5381542;26;20218;-70
2024/04/23 02:05:58;;;;;;;7.40;6.63;;;2.70;99.90;;;;;;5382131;26;20548;-70
2024/04/23 02:08:24;;;;;;;8.27;6.13;;;2.70;99.90;;;;;;5381602;26;20531;-71
2024/04/23 02:10:50;;;;;;;6.87;5.17;;;2.70;99.90;;;;;;5381144;26;20456;-70
2024/04/23 02:13:15;;;;;;;9.33;6.10;;;2.70;99.90;;;;;;5381507;26;20205;-71
2024/04/23 02:15:41;;;;;;;11.10;6.13;;;2.60;99.90;;;;;;5381660;26;20435;-71
2024/04/23 02:18:06;;;;;;;7.47;6.07;;;2.60;99.90;;;;;;5381623;26;20260;-71
2024/04/23 02:20:32;;;;;;;9.07;6.90;;;2.50;99.90;;;;;;5380883;26;20234;-70
2024/04/23 02:22:57;;;;;;;8.87;6.13;;;2.50;99.90;;;;;;5380894;26;20260;-70
2024/04/23 02:25:23;;;;;;;13.07;7.87;;;2.50;99.90;;;;;;5370873;26;20222;-70
2024/04/23 02:27:49;;;;;;;8.27;6.10;;;2.40;99.90;;;;;;5381214;26;20779;-70
2024/04/23 02:30:14;;;;;;;9.83;7.10;;;2.40;99.90;;;;;;5381287;26;20331;-70
2024/04/23 02:32:40;;;;;;;12.00;6.70;;;2.30;99.90;;;;;;5381040;26;20214;-70
2024/04/23 02:35:05;;;;;;;9.70;6.53;;;2.30;99.90;;;;;;5381377;26;20206;-71
2024/04/23 02:37:31;;;;;;;13.17;6.97;;;2.30;99.90;;;;;;5381432;26;20209;-70
2024/04/23 02:39:56;;;;;;;10.40;7.17;;;2.20;99.90;;;;;;5381279;26;20652;-71
2024/04/23 02:42:22;;;;;;;9.77;6.80;;;2.20;99.90;;;;;;5380877;26;20206;-71
2024/04/23 02:44:48;;;;;;;9.87;7.40;;;2.20;99.90;;;;;;5381467;26;20253;-71
2024/04/23 02:47:13;;;;;;;10.60;7.03;;;2.10;99.90;;;;;;5381315;26;20252;-70
2024/04/23 02:49:39;;;;;;;10.13;6.87;;;2.10;99.90;;;;;;5381216;26;20654;-71
2024/04/23 02:52:04;;;;;;;11.00;6.57;;;2.10;99.90;;;;;;5376746;26;20741;-72
2024/04/23 02:54:30;;;;;;;10.83;6.83;;;2.10;99.90;;;;;;5381242;26;20338;-70
2024/04/23 02:56:55;;;;;;;9.30;7.03;;;2.00;99.90;;;;;;5381316;26;20230;-72
2024/04/23 02:59:22;;;;;;;8.53;6.70;;;2.00;99.90;;;;;;5381078;26;20222;-71
2024/04/23 03:01:47;;;;;;;9.63;5.83;;;2.00;99.90;;;;;;5380675;26;20272;-71
2024/04/23 03:04:13;;;;;;;11.63;5.80;;;2.00;99.90;;;;;;5381123;26;20436;-71
2024/04/23 03:06:38;;;;;;;14.97;8.77;;;1.90;99.90;;;;;;5380620;26;20273;-71
2024/04/23 03:09:04;;;;;;;13.60;10.03;;;1.90;99.90;;;;;;5380884;26;20264;-70
2024/04/23 03:11:30;;;;;;;14.50;9.37;;;1.90;99.90;;;;;;5380657;26;20229;-70
2024/04/23 03:13:55;;;;;;;11.53;6.57;;;1.80;99.90;;;;;;5380944;26;20222;-71
2024/04/23 03:16:21;;;;;;;9.67;8.17;;;1.80;99.90;;;;;;5380545;26;20213;-70
2024/04/23 03:18:46;;;;;;;10.30;5.90;;;1.80;99.90;;;;;;5380098;26;20214;-71
2024/04/23 03:21:12;;;;;;;8.10;5.77;;;1.80;99.90;;;;;;5380250;26;20225;-70
2024/04/23 03:23:37;;;;;;;8.30;5.73;;;1.70;99.90;;;;;;5346301;26;20234;-70
2024/04/23 03:26:03;;;;;;;12.83;7.87;;;1.70;99.90;;;;;;5380338;26;20217;-69
2024/04/23 03:28:28;;;;;;;10.27;6.83;;;1.60;99.90;;;;;;5380716;26;20253;-70
2024/04/23 03:30:54;;;;;;;10.97;7.40;;;1.60;99.90;;;;;;5380302;26;20299;-69
2024/04/23 03:33:19;;;;;;;7.60;5.70;;;1.60;99.90;;;;;;5379288;26;20600;-69
2024/04/23 03:35:45;;;;;;;11.90;6.33;;;1.60;99.90;;;;;;5380781;26;20213;-70
2024/04/23 03:38:10;;;;;;;8.73;7.03;;;1.50;99.90;;;;;;5380673;26;20685;-69
2024/04/23 03:40:36;;;;;;;6.70;4.93;;;1.50;99.90;;;;;;5380521;26;20226;-70
2024/04/23 03:43:01;;;;;;;7.67;5.90;;;1.50;99.90;;;;;;5380091;26;20253;-69
2024/04/23 03:45:27;;;;;;;11.50;6.97;;;1.50;99.90;;;;;;5380596;26;20313;-69
2024/04/23 03:47:52;;;;;;;7.53;5.83;;;1.50;99.90;;;;;;5380495;26;20315;-70
2024/04/23 03:50:18;;;;;;;7.70;6.10;;;1.50;99.90;;;;;;5380417;26;20221;-70
2024/04/23 03:52:44;;;;;;;12.20;7.70;;;1.40;99.90;;;;;;5376498;26;20279;-70
2024/04/23 03:55:09;;;;;;;9.87;5.73;;;1.40;99.90;;;;;;5380291;26;20355;-70
2024/04/23 03:57:34;;;;;;;10.20;6.90;;;1.40;99.90;;;;;;5380410;26;20229;-70
2024/04/23 04:00:00;;;;;;;12.37;7.97;;;1.40;99.90;;;;;;5380406;26;20221;-70
2024/04/23 04:07:54;;;;;;;12.13;6.27;;;1.40;99.90;;;;;;5380000;26;20515;-68
2024/04/23 04:10:20;;;;;;;15.70;10.67;;;1.40;99.90;;;;;;5380107;26;20459;-69
2024/04/23 04:12:45;;;;;;;15.00;8.27;;;1.40;99.90;;;;;;5379708;26;20693;-69
2024/04/23 04:15:11;;;;;;;11.37;6.80;;;1.40;99.90;;;;;;5380051;26;20256;-69
2024/04/23 04:17:36;;;;;;;10.03;6.47;;;1.40;99.90;;;;;;5380374;26;20217;-69
2024/04/23 04:20:02;;;;;;;10.90;6.00;;;1.40;99.90;;;;;;5379886;26;20665;-69
2024/04/23 04:22:27;;;;;;;9.10;5.73;;;1.40;99.90;;;;;;5379603;26;20564;-69
2024/04/23 04:24:53;;;;;;;10.83;7.63;;;1.40;99.90;;;;;;5373787;26;20297;-68
2024/04/23 04:27:18;;;;;;;11.07;7.20;;;1.40;99.90;;;;;;5368492;26;20225;-69
2024/04/23 04:29:44;;;;;;;16.17;6.87;;;1.50;99.90;;;;;;5380010;26;20680;-68
2024/04/23 04:32:10;;;;;;;11.97;6.83;;;1.40;99.90;;;;;;5379712;26;20708;-69
2024/04/23 04:34:35;;;;;;;8.53;6.17;;;1.50;99.90;;;;;;5380023;26;20210;-70
2024/04/23 04:37:01;;;;;;;9.80;5.90;;;1.50;99.90;;;;;;5380348;26;20320;-69
2024/04/23 04:39:26;;;;;;;10.40;5.73;;;1.50;99.90;;;;;;5380028;26;20221;-70
2024/04/23 04:41:52;;;;;;;11.77;6.87;;;1.60;99.90;;;;;;5348448;26;20237;-69
2024/04/23 04:44:17;;;;;;;8.53;6.37;;;1.60;99.90;;;;;;5381028;26;20238;-70
2024/04/23 04:46:43;;;;;;;11.30;6.23;;;1.60;99.90;;;;;;5382842;26;20221;-68
2024/04/23 04:49:08;;;;;;;9.73;6.33;;;1.60;99.90;;;;;;5382850;26;20214;-68
2024/04/23 04:51:34;;;;;;;8.70;6.50;;;1.70;99.90;;;;;;5381832;26;20256;-69
2024/04/23 04:53:59;;;;;;;8.00;6.53;;;1.70;99.90;;;;;;5381009;26;20233;-69
2024/04/23 04:56:27;;;;;;;10.27;7.20;;;1.80;99.90;;;;;;5382896;26;20802;-69
2024/04/23 04:58:53;;;;;;;9.50;6.27;;;1.80;99.90;;;;;;5382655;26;20569;-70
2024/04/23 05:01:19;;;;;;;11.20;6.53;;;1.80;99.90;;;;;;5382417;26;20516;-69
2024/04/23 05:03:44;;;;;;;11.17;6.13;;;1.90;99.90;;;;;;5382734;26;20786;-69
2024/04/23 05:06:10;;;;;;;12.00;7.33;;;1.90;99.90;;;;;;5382589;26;20323;-69
2024/04/23 05:08:35;;;;;;;9.83;5.90;;;2.00;99.90;;;;;;5382727;26;20545;-69
2024/04/23 05:11:01;;;;;;;12.60;6.60;;;2.10;99.90;;;;;;5382227;26;20728;-69
2024/04/23 05:13:26;;;;;;;10.73;6.80;;;2.20;99.90;;;;;;5382613;26;20256;-69
2024/04/23 05:15:52;;;;;;;12.90;6.17;;;2.30;99.90;;;;;;5382363;26;20209;-70
2024/04/23 05:18:17;;;;;;;8.47;7.03;;;2.50;99.90;;;;;;5382641;26;20206;-69
2024/04/23 05:20:43;;;;;;;10.43;7.50;;;2.50;99.90;;;;;;5381782;26;20272;-69
2024/04/23 05:23:08;;;;;;;12.10;8.00;;;2.70;99.90;;;;;;5382368;26;20210;-70
2024/04/23 05:25:34;;;;;;;13.80;8.10;;;2.80;99.90;;;;;;5381890;26;20257;-69
2024/04/23 05:27:59;;;;;;;12.60;7.93;;;2.90;99.90;;;;;;5382108;26;20611;-69
2024/04/23 05:33:09;;;;;;;12.60;7.80;;;3.20;99.90;;;;;;5381979;26;20322;-69
2024/04/23 05:35:35;;;;;;;14.50;8.90;;;3.50;99.90;;;;;;5380487;26;21022;-69
2024/04/23 05:38:00;;;;;;;13.70;9.10;;;3.80;99.90;;;;;;5371185;26;20264;-70
2024/04/23 05:40:26;;;;;;;14.63;9.40;;;4.20;99.90;;;;;;5377726;26;20237;-70
2024/04/23 05:42:51;;;;;;;15.10;10.40;;;4.70;99.90;;;;;;5381637;26;20225;-70
2024/04/23 05:45:17;;;;;;;17.07;9.93;;;5.30;99.90;;;;;;5382228;26;20218;-69
2024/04/23 05:48:20;;;;;;;14.87;9.87;;;5.90;99.90;;;;;;5382232;26;20668;-68
2024/04/23 05:51:23;;;;;;;14.10;8.10;;;6.60;99.90;;;;;;5381594;26;20345;-69
2024/04/23 05:54:26;;;;;;;9.63;8.63;;;7.40;99.90;;;;;;5372909;26;20444;-70
2024/04/23 05:56:52;;;;;;;14.07;10.07;;;8.10;99.90;;;;;;5373670;26;20515;-70
2024/04/23 05:59:18;;;;;;;13.80;9.10;;;8.70;99.90;;;;;;5381587;26;20435;-69
2024/04/23 06:01:43;;;;;;;16.53;9.53;;;9.20;99.90;;;;;;5350305;26;20803;-70
2024/04/23 06:04:09;;;;;;;20.73;13.60;;;9.80;99.90;;;;;;5375053;26;20701;-70
2024/04/23 06:06:34;;;;;;;17.47;11.53;;;10.20;99.90;;;;;;5381792;26;20265;-70
2024/04/23 06:09:00;;;;;;;18.97;12.30;;;10.70;99.90;;;;;;5381611;26;20209;-70
2024/04/23 06:11:25;;;;;;;14.77;10.10;;;11.20;99.90;;;;;;5381126;26;20234;-67
2024/04/23 06:14:05;;;;;;;13.20;10.10;;;11.80;99.90;;;;;;5381868;26;20767;-68
2024/04/23 06:16:31;;;;;;;16.93;10.67;;;12.50;99.90;;;;;;5381838;26;20210;-67
2024/04/23 06:18:56;;;;;;;14.50;8.73;;;13.10;99.90;;;;;;5381811;26;20507;-69
2024/04/23 06:21:22;;;;;;;13.33;10.80;;;13.60;99.90;;;;;;5381206;26;20601;-67
2024/04/23 06:23:47;;;;;;;12.23;8.30;;;14.00;99.90;;;;;;5381771;26;20267;-71
2024/04/23 06:26:13;;;;;;;10.07;8.27;;;14.50;99.90;;;;;;5381643;26;20209;-67
2024/04/23 06:28:38;;;;;;;10.73;9.63;;;15.10;98.30;;;;;;5381614;26;20217;-67
2024/04/23 06:31:12;;;;;;;11.27;8.87;;;15.70;95.80;;;;;;5381280;26;20319;-67
2024/04/23 06:33:38;;;;;;;10.43;7.33;;;16.30;92.10;;;;;;5381561;26;20322;-67
2024/04/23 06:36:04;;;;;;;10.90;8.10;;;16.80;78.30;;;;;;5381610;26;20444;-68
2024/04/23 06:38:29;;;;;;;9.90;8.47;;;17.40;73.90;;;;;;5381433;26;20583;-70
2024/04/23 06:40:55;;;;;;;8.70;7.70;;;17.90;67.20;;;;;;5350157;26;20276;-68
2024/04/23 06:43:20;;;;;;;8.50;7.60;;;18.40;58.40;;;;;;5375287;26;20267;-69
2024/04/23 06:45:46;;;;;;;10.23;8.17;;;18.90;52.70;;;;;;5380991;26;20334;-68
2024/04/23 06:48:15;;;;;;;11.40;9.40;;;19.00;48.50;;;;;;5378478;26;20314;-69
2024/04/23 06:50:41;;;;;;;8.70;7.80;;;19.60;46.80;;;;;;5380883;26;21010;-69
2024/04/23 06:53:07;;;;;;;10.90;8.57;;;19.40;42.10;;;;;;5372267;26;20467;-68
2024/04/23 06:55:32;;;;;;;9.27;7.73;;;19.10;40.80;;;;;;5380909;26;20952;-69
2024/04/23 06:57:58;;;;;;;11.33;8.70;;;19.60;41.70;;;;;;5380997;26;20767;-69
2024/04/23 07:00:23;;;;;;;8.40;7.07;;;19.30;39.10;;;;;;5335898;26;20364;-68
2024/04/23 07:02:49;;;;;;;9.80;8.80;;;19.90;40.50;;;;;;5380494;26;20225;-68
2024/04/23 07:05:15;;;;;;;9.20;8.30;;;20.20;37.90;;;;;;5381013;26;20209;-69
2024/04/23 07:07:40;;;;;;;7.70;6.67;;;20.30;36.60;;;;;;5380740;26;20213;-69
2024/04/23 07:10:07;;;;;;;7.50;6.70;;;20.60;35.90;;;;;;5380805;26;20264;-68
2024/04/23 07:12:33;;;;;;;6.90;5.87;;;21.40;37.50;;;;;;5380554;26;20214;-69
2024/04/23 07:14:59;;;;;;;6.93;5.57;;;22.30;36.10;;;;;;5380961;26;20444;-68
2024/04/23 07:17:25;;;;;;;6.00;4.97;;;22.70;33.10;;;;;;5380954;26;20464;-69
2024/04/23 07:19:50;;;;;;;5.30;4.80;;;23.20;31.70;;;;;;5381116;26;20591;-69
2024/04/23 07:22:16;;;;;;;7.93;5.77;;;23.70;31.20;;;;;;5380189;26;20335;-70
2024/04/23 07:24:42;;;;;;;5.77;5.27;;;24.00;30.20;;;;;;5380771;26;20709;-68
2024/04/23 07:27:08;;;;;;;6.23;5.00;;;24.90;30.60;;;;;;5374527;26;20299;-69
2024/04/23 07:29:33;;;;;;;6.53;5.80;;;24.40;27.90;;;;;;5380083;26;20452;-69
2024/04/23 07:31:59;;;;;;;6.50;6.00;;;25.20;27.90;;;;;;5380531;26;20225;-69
2024/04/23 07:34:24;;;;;;;10.27;5.87;;;24.80;27.10;;;;;;5380559;26;20603;-70
2024/04/23 07:36:50;;;;;;;7.50;4.63;;;24.50;26.60;;;;;;5365683;26;20222;-69
2024/04/23 07:39:16;;;;;;;6.07;4.43;;;24.00;27.10;;;;;;5362699;26;20237;-69
2024/04/23 07:41:41;;;;;;;4.53;3.67;;;24.60;28.20;;;;;;5338378;26;20238;-69
2024/04/23 07:44:07;;;;;;;6.10;4.40;;;25.20;28.20;;;;;;5370656;26;20476;-69
2024/04/23 07:46:32;;;;;;;4.43;4.03;;;26.20;28.40;;;;;;5377223;26;20550;-71
2024/04/23 07:48:58;;;;;;;5.37;4.87;;;27.20;27.30;;;;;;5380440;26;20272;-69
2024/04/23 07:51:23;;;;;;;5.43;4.83;;;27.00;25.10;;;;;;5380336;26;20230;-69
2024/04/23 07:53:49;;;;;;;6.03;4.30;;;26.80;24.30;;;;;;5380511;26;20232;-70
2024/04/23 07:56:16;;;;;;;5.27;4.77;;;26.90;24.40;;;;;;5369524;26;20234;-69
2024/04/23 07:58:41;;;;;;;4.40;4.00;;;26.30;24.40;;;;;;5380444;26;20281;-69
2024/04/23 08:01:07;;;;;;;4.07;3.77;;;26.50;25.10;;;;;;5378088;26;20982;-69
2024/04/23 08:03:34;;;;;;;4.60;4.20;;;27.30;25.90;;;;;;5380040;26;20267;-68
2024/04/23 08:06:02;;;;;;;5.67;5.20;;;27.30;24.40;;;;;;5380202;26;20326;-69
2024/04/23 08:08:27;;;;;;;4.83;4.30;;;26.50;23.30;;;;;;5379948;26;20845;-70
2024/04/23 08:10:53;;;;;;;6.00;5.27;;;25.80;24.40;;;;;;5366758;26;20472;-71
2024/04/23 08:13:18;;;;;;;4.40;4.10;;;26.10;24.90;;;;;;5379685;26;20681;-69
2024/04/23 08:15:44;;;;;;;3.77;3.47;;;26.50;25.30;;;;;;5379727;26;20221;-69
2024/04/23 08:18:10;;;;;;;6.67;3.63;;;26.90;25.20;;;;;;5378688;26;20784;-69
2024/04/23 08:20:35;;;;;;;4.57;4.00;;;27.50;24.20;;;;;;5382652;26;20232;-69
2024/04/23 08:23:01;;;;;;;3.70;3.37;;;27.90;22.90;;;;;;5414526;26;20276;-68
2024/04/23 08:25:26;;;;;;;3.90;3.50;;;28.50;22.30;;;;;;5384368;26;20217;-69
2024/04/23 08:27:52;;;;;;;3.93;2.50;;;29.70;23.40;;;;;;5370968;26;20218;-70
2024/04/23 08:30:21;;;;;;;3.50;3.20;;;31.10;24.30;;;;;;5380067;26;20272;-71
2024/04/23 08:32:47;;;;;;;5.00;4.50;;;32.70;23.80;;;;;;5379464;26;20210;-70
2024/04/23 08:35:12;;;;;;;3.60;3.30;;;33.70;20.20;;;;;;5379692;26;20507;-70
2024/04/23 08:37:40;;;;;;;3.60;3.30;;;34.80;20.30;;;;;;5379738;26;20443;-70
2024/04/23 08:40:07;;;;;;;3.73;3.30;;;36.20;20.30;;;;;;5379333;26;20551;-71
2024/04/23 08:42:38;;;;;;;3.43;3.10;;;37.10;18.90;;;;;;5373817;26;20463;-72
2024/04/23 08:45:06;;;;;;;4.20;3.90;;;38.10;18.50;;;;;;5368425;26;21002;-73
2024/04/23 08:47:33;;;;;;;3.10;2.80;;;39.20;17.60;;;;;;5379559;26;20452;-69
2024/04/23 08:49:59;;;;;;;5.27;4.87;;;40.10;17.70;;;;;;5379512;26;20512;-69
2024/04/23 08:52:25;;;;;;;4.20;3.40;;;40.90;16.00;;;;;;5376895;26;20527;-69
2024/04/23 08:54:51;;;;;;;3.40;2.63;;;41.70;16.20;;;;;;5369224;26;20512;-69
2024/04/23 08:57:18;;;;;;;3.83;3.20;;;42.50;14.80;;;;;;5379195;26;20986;-69
2024/04/23 08:59:44;;;;;;;3.53;3.23;;;42.70;14.40;;;;;;5378815;26;20226;-68
2024/04/23 09:02:34;;;;;;;3.83;3.57;;;43.30;14.60;;;;;;5378232;26;20444;-70
2024/04/23 09:05:02;;;;;;;2.87;2.67;;;43.70;13.90;;;;;;5378419;26;20229;-69
2024/04/23 09:07:28;;;;;;;2.60;2.40;;;44.20;14.00;;;;;;5378700;26;21117;-70
2024/04/23 09:09:54;;;;;;;3.00;2.80;;;44.70;14.10;;;;;;5378882;26;20455;-69
2024/04/23 09:12:20;;;;;;;4.50;2.63;;;45.20;14.00;;;;;;5378484;26;20342;-69
2024/04/23 09:14:48;;;;;;;3.17;2.97;;;45.70;13.60;;;;;;5378964;26;20938;-70
2024/04/23 09:17:14;;;;;;;2.73;2.53;;;45.80;11.80;;;;;;5379007;26;20214;-69
2024/04/23 09:19:40;;;;;;;2.50;2.33;;;46.00;12.40;;;;;;5378511;26;20474;-69
2024/04/23 09:22:06;;;;;;;2.60;2.40;;;46.30;12.20;;;;;;5378383;26;20233;-69
2024/04/23 09:24:31;;;;;;;2.60;2.50;;;46.70;12.20;;;;;;5378977;26;20547;-69
2024/04/23 09:26:58;;;;;;;3.40;3.03;;;47.10;12.30;;;;;;5378662;26;20762;-69
2024/04/23 09:29:28;;;;;;;3.80;2.50;;;47.50;11.80;;;;;;5378591;26;20226;-70
2024/04/23 09:31:55;;;;;;;2.70;2.50;;;47.70;11.80;;;;;;5380581;26;20490;-70
2024/04/23 09:34:27;;;;;;;2.80;2.40;;;48.00;11.70;;;;;;5382147;26;20443;-69
2024/04/23 09:36:53;;;;;;;2.97;2.70;;;48.40;11.70;;;;;;5350993;26;21012;-69
2024/04/23 09:39:19;;;;;;;2.50;2.30;;;48.70;11.20;;;;;;5377730;26;20445;-69
2024/04/23 09:41:55;;;;;;;3.03;2.83;;;48.80;10.70;;;;;;5373757;26;20993;-69
2024/04/23 09:44:20;;;;;;;2.63;2.43;;;48.90;9.80;;;;;;5381857;26;20330;-68
2024/04/23 09:46:46;;;;;;;2.73;2.53;;;49.10;10.20;;;;;;5381940;26;20947;-68
2024/04/23 09:49:12;;;;;;;2.10;2.00;;;49.20;10.20;;;;;;5381795;26;20234;-69
2024/04/23 09:51:38;;;;;;;2.57;2.37;;;49.40;10.30;;;;;;5381824;26;20283;-69
2024/04/23 09:54:04;;;;;;;2.23;2.03;;;49.40;9.90;;;;;;5373002;26;20217;-69
2024/04/23 09:56:30;;;;;;;2.63;2.20;;;49.40;9.80;;;;;;5385902;26;20261;-68
2024/04/23 09:58:55;;;;;;;2.83;2.13;;;49.30;9.60;;;;;;5382792;26;21058;-68
2024/04/23 10:01:24;;;;;;;2.57;2.37;;;49.20;9.80;;;;;;5367004;26;20339;-68
2024/04/23 10:03:54;;;;;;;1.90;1.80;;;49.50;9.80;;;;;;5382023;26;20315;-69
2024/04/23 10:06:26;;;;;;;2.20;1.90;;;48.60;9.50;;;;;;5381940;26;20416;-69
2024/04/23 10:09:03;;;;;;;2.90;2.20;;;46.30;9.30;;;;;;5368910;26;20422;-69
2024/04/23 10:11:40;;;;;;;2.30;2.10;;;43.20;9.40;;;;;;5361222;26;20439;-68
2024/04/23 10:14:22;;;;;;;2.23;2.03;;;40.70;10.20;;;;;;5333289;26;20445;-69
2024/04/23 10:17:12;;;;;;;2.37;2.13;;;40.60;11.10;;;;;;5361748;26;20460;-70
2024/04/23 10:19:38;;;;;;;2.23;2.13;;;39.90;10.70;;;;;;5368223;26;20460;-68
2024/04/23 10:22:05;;;;;;;3.23;2.10;;;40.60;11.40;;;;;;5381566;26;20479;-68
2024/04/23 10:24:31;;;;;;;2.33;2.23;;;41.90;11.30;;;;;;5381498;26;20452;-69
2024/04/23 10:26:57;;;;;;;2.57;2.37;;;43.30;11.20;;;;;;5350547;26;20819;-68
2024/04/23 10:29:25;;;;;;;3.13;2.83;;;44.60;10.70;;;;;;5375793;26;20521;-68
2024/04/23 10:31:50;;;;;;;3.70;3.40;;;45.70;10.80;;;;;;5361627;26;20478;-69
2024/04/23 10:34:17;;;;;;;3.10;2.90;;;46.60;10.30;;;;;;5361566;26;20521;-69
2024/04/23 10:36:49;;;;;;;2.80;2.60;;;47.30;10.10;;;;;;5381914;26;20218;-68
2024/04/23 10:39:16;;;;;;;3.70;3.47;;;47.80;10.40;;;;;;5381948;26;20599;-68
2024/04/23 10:41:45;;;;;;;3.03;2.57;;;48.30;10.10;;;;;;5349625;26;20525;-69
2024/04/23 10:44:13;;;;;;;3.07;2.77;;;48.90;10.10;;;;;;5377844;26;20999;-68
2024/04/23 10:46:40;;;;;;;3.20;2.70;;;49.40;10.20;;;;;;5367510;26;20431;-69
2024/04/23 10:49:15;;;;;;;2.43;2.33;;;49.90;10.00;;;;;;5369660;26;20428;-69
2024/04/23 10:51:44;;;;;;;2.50;2.40;;;49.90;9.70;;;;;;5373458;26;21038;-69
2024/04/23 10:54:13;;;;;;;2.90;2.70;;;50.10;9.60;;;;;;5360838;26;20537;-68
2024/04/23 10:56:40;;;;;;;2.90;2.70;;;50.00;9.40;;;;;;5367731;26;21071;-69
2024/04/23 10:59:17;;;;;;;3.00;2.80;;;50.30;10.30;;;;;;5381428;26;20515;-69
2024/04/23 11:01:57;;;;;;;2.80;2.67;;;50.80;9.90;;;;;;5368105;26;21084;-68
2024/04/23 11:04:34;;;;;;;4.80;4.30;;;51.30;9.70;;;;;;5350024;26;20440;-68
2024/04/23 11:07:04;;;;;;;2.80;2.60;;;49.90;8.90;;;;;;5380595;26;20466;-69
2024/04/23 11:09:36;;;;;;;3.57;3.03;;;46.70;8.70;;;;;;5381058;26;20471;-68
2024/04/23 11:12:01;;;;;;;2.63;2.43;;;43.50;9.30;;;;;;5380683;26;20463;-68
2024/04/23 11:14:34;;;;;;;2.83;2.63;;;41.20;10.20;;;;;;5380810;26;20527;-69
2024/04/23 11:17:04;;;;;;;3.10;2.90;;;41.10;11.10;;;;;;5381010;26;20326;-68
2024/04/23 11:19:44;;;;;;;3.30;3.00;;;40.50;10.90;;;;;;5380969;26;20494;-68
2024/04/23 11:22:15;;;;;;;4.07;3.77;;;40.00;11.10;;;;;;5380281;26;20516;-69
2024/04/23 11:24:54;;;;;;;2.90;2.60;;;40.80;10.80;;;;;;5380770;26;20432;-70
2024/04/23 11:27:20;;;;;;;2.50;2.30;;;42.10;11.40;;;;;;5380822;26;20545;-69
2024/04/23 11:29:47;;;;;;;2.47;2.30;;;43.80;11.10;;;;;;5380751;26;20483;-69
2024/04/23 11:32:14;;;;;;;4.90;2.53;;;45.50;11.30;;;;;;5380220;26;20431;-69
2024/04/23 11:34:45;;;;;;;2.60;2.40;;;46.90;11.00;;;;;;5350125;26;20468;-69
2024/04/23 11:37:19;;;;;;;2.33;2.13;;;47.80;10.90;;;;;;5380703;26;20779;-69
2024/04/23 11:39:45;;;;;;;2.83;2.63;;;48.90;10.70;;;;;;5380650;26;20561;-69
2024/04/23 11:42:10;;;;;;;3.03;2.83;;;49.60;10.10;;;;;;5380094;26;20459;-69
2024/04/23 11:44:36;;;;;;;2.87;2.67;;;48.30;9.00;;;;;;5349476;26;20217;-69
2024/04/23 11:47:01;;;;;;;5.63;4.17;;;46.60;9.10;;;;;;5380281;26;20327;-69
2024/04/23 11:49:27;;;;;;;2.80;2.60;;;45.60;8.50;;;;;;5380599;26;20213;-69
2024/04/23 11:51:56;;;;;;;2.67;2.47;;;45.60;9.40;;;;;;5380020;26;20724;-69
2024/04/23 11:54:24;;;;;;;2.30;2.20;;;45.80;9.70;;;;;;5379303;26;20213;-69
2024/04/23 11:56:51;;;;;;;2.63;2.43;;;46.00;9.80;;;;;;5380321;26;20419;-69
2024/04/23 11:59:20;;;;;;;2.30;2.10;;;46.20;9.60;;;;;;5380324;26;20598;-69
2024/04/23 12:01:47;;;;;;;2.50;2.30;;;46.80;9.70;;;;;;5379792;26;21045;-69
2024/04/23 12:04:15;;;;;;;3.00;2.70;;;47.50;9.40;;;;;;5380466;26;20492;-68
2024/04/23 12:06:41;;;;;;;4.40;2.07;;;48.30;9.60;;;;;;5380426;26;20553;-69
2024/04/23 12:09:07;;;;;;;2.80;2.60;;;48.50;9.10;;;;;;5380239;26;20591;-68
2024/04/23 12:11:34;;;;;;;2.53;2.33;;;46.30;8.50;;;;;;5379706;26;20495;-69
2024/04/23 12:14:00;;;;;;;2.77;2.57;;;43.60;8.80;;;;;;5349279;26;20436;-69
2024/04/23 12:16:25;;;;;;;3.50;2.70;;;40.80;9.10;;;;;;5349386;26;20499;-69
2024/04/23 12:18:51;;;;;;;2.07;1.97;;;40.40;10.10;;;;;;5380276;26;20353;-69
2024/04/23 12:21:16;;;;;;;2.83;2.60;;;41.90;10.60;;;;;;5379640;26;20225;-68
2024/04/23 12:23:42;;;;;;;2.90;2.60;;;42.40;9.90;;;;;;5380258;26;20260;-69
2024/04/23 12:26:13;;;;;;;2.73;2.53;;;40.40;9.50;;;;;;5349315;26;20256;-68
2024/04/23 12:28:39;;;;;;;3.50;2.80;;;38.10;10.30;;;;;;5348921;26;20225;-68
2024/04/23 12:31:05;;;;;;;2.10;2.00;;;37.60;10.90;;;;;;5379310;26;20527;-68
2024/04/23 12:33:31;;;;;;;3.10;2.80;;;37.70;11.20;;;;;;5379865;26;20931;-69
2024/04/23 12:36:05;;;;;;;2.73;2.53;;;36.80;10.20;;;;;;5380085;26;20214;-68
2024/04/23 12:38:46;;;;;;;2.63;2.27;;;35.50;10.50;;;;;;5379999;26;20221;-69
2024/04/23 12:41:13;;;;;;;2.30;2.10;;;33.80;11.10;;;;;;5379285;26;20460;-69
2024/04/23 12:43:42;;;;;;;2.53;2.33;;;32.10;11.70;;;;;;5379794;26;20801;-69
2024/04/23 12:46:11;;;;;;;3.23;3.00;;;30.60;12.40;;;;;;5379854;26;20463;-68
2024/04/23 12:48:37;;;;;;;2.97;2.67;;;29.90;13.60;;;;;;5379589;26;20447;-69
2024/04/23 12:51:03;;;;;;;2.57;2.37;;;30.00;14.00;;;;;;5379261;26;20508;-68
2024/04/23 12:53:28;;;;;;;2.33;2.23;;;29.80;14.00;;;;;;5379371;26;20865;-69
2024/04/23 12:55:54;;;;;;;2.70;2.50;;;29.00;13.90;;;;;;5379775;26;20217;-70
2024/04/23 12:58:21;;;;;;;3.20;3.00;;;28.10;14.10;;;;;;5379765;26;20221;-68